RYR6827 EPGD-LZIB
Flight info
| Callsign | RYR6827 |
|---|---|
| Flight time | 1h 17m |
| Altitude | 36000 |
| Route | IRLUN N133 GRUDA DCT UPKIS T720 REGLI DCT MAVOR P10 BERVA |
| Aircraft | B738/M-SDE3FGILRWY/SB1 |
Departure
| Time | 2026-05-07 18:49 |
|---|---|
| Airport | Gdańsk Lech Wałęsa Airport (EPGD) |
Arrival
| Time | 2026-05-07 20:07 |
|---|---|
| Airport | M. R. Štefánik Airport (LZIB) |
| Time | Latitude | Longitude | Altitude | Speed | Heading |
|---|---|---|---|---|---|
| 2026-05-07 18:27 | 54.38189 | 18.46314 | 459 ft | 0 kts | 24° |
| 2026-05-07 18:35 | 54.38185 | 18.46311 | 459 ft | 3 kts | 26° |
| 2026-05-07 18:35 | 54.38164 | 18.46286 | 458 ft | 4 kts | 59° |
| 2026-05-07 18:36 | 54.38159 | 18.46246 | 457 ft | 4 kts | 105° |
| 2026-05-07 18:36 | 54.38162 | 18.46231 | 458 ft | 1 kts | 113° |
| 2026-05-07 18:41 | 54.38156 | 18.46256 | 457 ft | 4 kts | 113° |
| 2026-05-07 18:41 | 54.38144 | 18.46302 | 459 ft | 4 kts | 113° |
| 2026-05-07 18:42 | 54.38133 | 18.46347 | 457 ft | 4 kts | 113° |
| 2026-05-07 18:42 | 54.38119 | 18.46406 | 456 ft | 8 kts | 112° |
| 2026-05-07 18:42 | 54.38091 | 18.46517 | 456 ft | 12 kts | 112° |
| 2026-05-07 18:42 | 54.38061 | 18.46610 | 459 ft | 7 kts | 149° |
| 2026-05-07 18:43 | 54.38009 | 18.46598 | 459 ft | 9 kts | 198° |
| 2026-05-07 18:43 | 54.37945 | 18.46610 | 458 ft | 11 kts | 136° |
| 2026-05-07 18:43 | 54.37907 | 18.46744 | 458 ft | 14 kts | 111° |
| 2026-05-07 18:43 | 54.37867 | 18.46906 | 458 ft | 15 kts | 113° |
| 2026-05-07 18:44 | 54.37820 | 18.47091 | 459 ft | 19 kts | 113° |
| 2026-05-07 18:44 | 54.37764 | 18.47320 | 459 ft | 22 kts | 113° |
| 2026-05-07 18:44 | 54.37705 | 18.47558 | 460 ft | 22 kts | 113° |
| 2026-05-07 18:44 | 54.37646 | 18.47792 | 467 ft | 21 kts | 113° |
| 2026-05-07 18:45 | 54.37591 | 18.48020 | 471 ft | 20 kts | 112° |
| 2026-05-07 18:45 | 54.37536 | 18.48240 | 477 ft | 20 kts | 113° |
| 2026-05-07 18:45 | 54.37483 | 18.48454 | 480 ft | 19 kts | 112° |
| 2026-05-07 18:45 | 54.37431 | 18.48665 | 484 ft | 20 kts | 114° |
| 2026-05-07 18:46 | 54.37372 | 18.48901 | 490 ft | 23 kts | 112° |
| 2026-05-07 18:46 | 54.37331 | 18.49072 | 486 ft | 11 kts | 111° |
| 2026-05-07 18:46 | 54.37278 | 18.49150 | 492 ft | 10 kts | 174° |
| 2026-05-07 18:46 | 54.37239 | 18.49137 | 494 ft | 0 kts | 200° |
| 2026-05-07 18:47 | 54.37232 | 18.49133 | 494 ft | 3 kts | 200° |
| 2026-05-07 18:48 | 54.37202 | 18.49113 | 494 ft | 7 kts | 204° |
| 2026-05-07 18:48 | 54.37167 | 18.49038 | 491 ft | 10 kts | 259° |
| 2026-05-07 18:48 | 54.37171 | 18.48990 | 494 ft | 0 kts | 290° |
| 2026-05-07 18:48 | 54.37183 | 18.48940 | 494 ft | 17 kts | 292° |
| 2026-05-07 18:49 | 54.37333 | 18.48335 | 480 ft | 94 kts | 293° |
| 2026-05-07 18:49 | 54.37689 | 18.46934 | 462 ft | 159 kts | 295° |
| 2026-05-07 18:49 | 54.38146 | 18.45057 | 990 ft | 173 kts | 295° |
| 2026-05-07 18:49 | 54.38569 | 18.43147 | 1976 ft | 171 kts | 296° |
| 2026-05-07 18:50 | 54.39032 | 18.41143 | 2506 ft | 194 kts | 297° |
| 2026-05-07 18:50 | 54.39604 | 18.38881 | 2831 ft | 218 kts | 299° |
| 2026-05-07 18:50 | 54.40256 | 18.36446 | 3323 ft | 229 kts | 297° |
| 2026-05-07 18:50 | 54.40898 | 18.33906 | 3993 ft | 235 kts | 297° |
| 2026-05-07 18:51 | 54.41538 | 18.31333 | 4885 ft | 234 kts | 296° |
| 2026-05-07 18:51 | 54.42186 | 18.28730 | 5686 ft | 238 kts | 295° |
| 2026-05-07 18:51 | 54.42841 | 18.26094 | 6458 ft | 242 kts | 294° |
| 2026-05-07 18:51 | 54.43320 | 18.23314 | 7155 ft | 248 kts | 271° |
| 2026-05-07 18:52 | 54.42910 | 18.20468 | 7908 ft | 250 kts | 239° |
| 2026-05-07 18:52 | 54.41675 | 18.18236 | 8239 ft | 272 kts | 208° |
| 2026-05-07 18:52 | 54.39829 | 18.17345 | 8747 ft | 282 kts | 184° |
| 2026-05-07 18:52 | 54.37856 | 18.17162 | 9528 ft | 285 kts | 180° |
| 2026-05-07 18:53 | 54.35865 | 18.17099 | 10327 ft | 288 kts | 180° |
| 2026-05-07 18:53 | 54.33794 | 18.17058 | 10620 ft | 310 kts | 180° |
| 2026-05-07 18:53 | 54.31560 | 18.17011 | 10819 ft | 332 kts | 180° |
| 2026-05-07 18:53 | 54.29218 | 18.16948 | 11374 ft | 341 kts | 180° |
| 2026-05-07 18:54 | 54.26840 | 18.16870 | 12187 ft | 341 kts | 181° |
| 2026-05-07 18:54 | 54.24462 | 18.16782 | 13000 ft | 344 kts | 181° |
| 2026-05-07 18:54 | 54.22053 | 18.16686 | 13778 ft | 348 kts | 182° |
| 2026-05-07 18:54 | 54.19632 | 18.16585 | 14570 ft | 349 kts | 182° |
| 2026-05-07 18:55 | 54.17189 | 18.16480 | 15270 ft | 354 kts | 182° |
| 2026-05-07 18:55 | 54.14710 | 18.16371 | 15979 ft | 358 kts | 182° |
| 2026-05-07 18:55 | 54.12213 | 18.16261 | 16772 ft | 360 kts | 182° |
| 2026-05-07 18:55 | 54.09691 | 18.16149 | 17427 ft | 365 kts | 182° |
| 2026-05-07 18:56 | 54.07169 | 18.16036 | 18114 ft | 369 kts | 182° |
| 2026-05-07 18:56 | 54.04591 | 18.15921 | 18783 ft | 372 kts | 182° |
| 2026-05-07 18:56 | 54.01957 | 18.15804 | 19433 ft | 375 kts | 182° |
| 2026-05-07 18:56 | 53.99339 | 18.15687 | 20075 ft | 377 kts | 182° |
| 2026-05-07 18:57 | 53.96743 | 18.15572 | 20710 ft | 380 kts | 182° |
| 2026-05-07 18:57 | 53.94094 | 18.15455 | 21345 ft | 382 kts | 182° |
| 2026-05-07 18:57 | 53.91395 | 18.15336 | 21965 ft | 385 kts | 182° |
| 2026-05-07 18:57 | 53.88744 | 18.15219 | 22578 ft | 387 kts | 182° |
| 2026-05-07 18:58 | 53.86011 | 18.15098 | 23196 ft | 389 kts | 182° |
| 2026-05-07 18:58 | 53.83293 | 18.14978 | 23760 ft | 392 kts | 182° |
| 2026-05-07 18:58 | 53.80597 | 18.14860 | 24293 ft | 392 kts | 183° |
| 2026-05-07 18:58 | 53.77869 | 18.14740 | 24878 ft | 391 kts | 183° |
| 2026-05-07 18:59 | 53.75150 | 18.14621 | 25434 ft | 391 kts | 183° |
| 2026-05-07 18:59 | 53.72425 | 18.14502 | 25952 ft | 392 kts | 183° |
| 2026-05-07 18:59 | 53.69699 | 18.14382 | 26445 ft | 393 kts | 183° |
| 2026-05-07 18:59 | 53.66959 | 18.14262 | 26927 ft | 394 kts | 183° |
| 2026-05-07 19:00 | 53.64217 | 18.14142 | 27438 ft | 394 kts | 183° |
| 2026-05-07 19:00 | 53.61477 | 18.14022 | 27887 ft | 395 kts | 183° |
| 2026-05-07 19:00 | 53.58721 | 18.13902 | 28328 ft | 397 kts | 184° |
| 2026-05-07 19:00 | 53.55956 | 18.13782 | 28755 ft | 398 kts | 184° |
| 2026-05-07 19:01 | 53.53182 | 18.13661 | 29164 ft | 400 kts | 184° |
| 2026-05-07 19:01 | 53.50406 | 18.13541 | 29733 ft | 397 kts | 184° |
| 2026-05-07 19:01 | 53.47666 | 18.13424 | 30412 ft | 391 kts | 184° |
| 2026-05-07 19:01 | 53.44955 | 18.13308 | 30851 ft | 390 kts | 184° |
| 2026-05-07 19:02 | 53.42231 | 18.13189 | 31124 ft | 393 kts | 184° |
| 2026-05-07 19:02 | 53.39489 | 18.13070 | 31419 ft | 395 kts | 184° |
| 2026-05-07 19:02 | 53.36747 | 18.12951 | 31819 ft | 394 kts | 184° |
| 2026-05-07 19:02 | 53.34005 | 18.12833 | 32236 ft | 393 kts | 184° |
| 2026-05-07 19:03 | 53.31274 | 18.12716 | 32568 ft | 394 kts | 184° |
| 2026-05-07 19:03 | 53.28532 | 18.12598 | 32882 ft | 395 kts | 184° |
| 2026-05-07 19:03 | 53.25788 | 18.12480 | 33246 ft | 394 kts | 184° |
| 2026-05-07 19:03 | 53.23040 | 18.12362 | 33611 ft | 394 kts | 184° |
| 2026-05-07 19:04 | 53.20298 | 18.12245 | 33940 ft | 395 kts | 184° |
| 2026-05-07 19:04 | 53.17552 | 18.12128 | 34229 ft | 395 kts | 184° |
| 2026-05-07 19:04 | 53.14802 | 18.12010 | 34463 ft | 396 kts | 184° |
| 2026-05-07 19:04 | 53.12074 | 18.11893 | 34677 ft | 398 kts | 184° |
| 2026-05-07 19:05 | 53.09299 | 18.11775 | 34921 ft | 399 kts | 184° |
| 2026-05-07 19:05 | 53.06521 | 18.11657 | 35161 ft | 400 kts | 184° |
| 2026-05-07 19:05 | 53.03737 | 18.11539 | 35404 ft | 401 kts | 184° |
| 2026-05-07 19:05 | 53.00953 | 18.11420 | 35626 ft | 403 kts | 183° |
| 2026-05-07 19:06 | 52.98099 | 18.11300 | 35864 ft | 403 kts | 183° |
| 2026-05-07 19:06 | 52.92493 | 18.11062 | 36058 ft | 409 kts | 183° |
| 2026-05-07 19:06 | 52.89607 | 18.10940 | 36074 ft | 410 kts | 183° |
| 2026-05-07 19:07 | 52.83974 | 18.10705 | 36057 ft | 404 kts | 183° |
| 2026-05-07 19:07 | 52.78384 | 18.10472 | 36071 ft | 401 kts | 183° |
| 2026-05-07 19:08 | 52.72807 | 18.10238 | 36069 ft | 401 kts | 183° |
| 2026-05-07 19:08 | 52.67232 | 18.10004 | 36066 ft | 401 kts | 183° |
| 2026-05-07 19:09 | 52.61656 | 18.09772 | 36066 ft | 401 kts | 183° |
| 2026-05-07 19:09 | 52.56075 | 18.09539 | 36063 ft | 401 kts | 183° |
| 2026-05-07 19:10 | 52.50504 | 18.09308 | 36060 ft | 401 kts | 183° |
| 2026-05-07 19:10 | 52.44926 | 18.09078 | 36058 ft | 401 kts | 183° |
| 2026-05-07 19:11 | 52.39347 | 18.08848 | 36060 ft | 401 kts | 183° |
| 2026-05-07 19:11 | 52.33762 | 18.08618 | 36058 ft | 401 kts | 183° |
| 2026-05-07 19:12 | 52.28187 | 18.08389 | 36060 ft | 401 kts | 183° |
| 2026-05-07 19:12 | 52.22613 | 18.08161 | 36057 ft | 401 kts | 183° |
| 2026-05-07 19:13 | 52.17039 | 18.07933 | 36056 ft | 400 kts | 183° |
| 2026-05-07 19:13 | 52.11470 | 18.07706 | 36052 ft | 400 kts | 183° |
| 2026-05-07 19:14 | 52.05906 | 18.07480 | 36054 ft | 400 kts | 183° |
| 2026-05-07 19:14 | 52.00351 | 18.07255 | 36051 ft | 399 kts | 183° |
| 2026-05-07 19:15 | 51.94795 | 18.07031 | 36051 ft | 399 kts | 183° |
| 2026-05-07 19:15 | 51.89244 | 18.06807 | 36050 ft | 399 kts | 183° |
| 2026-05-07 19:16 | 51.83702 | 18.06584 | 36044 ft | 398 kts | 183° |
| 2026-05-07 19:16 | 51.78168 | 18.06362 | 36047 ft | 398 kts | 183° |
| 2026-05-07 19:17 | 51.72623 | 18.06139 | 36042 ft | 398 kts | 183° |
| 2026-05-07 19:17 | 51.67090 | 18.05918 | 36042 ft | 398 kts | 183° |
| 2026-05-07 19:18 | 51.61553 | 18.05698 | 36043 ft | 398 kts | 183° |
| 2026-05-07 19:18 | 51.56017 | 18.05478 | 36040 ft | 398 kts | 183° |
| 2026-05-07 19:19 | 51.50517 | 18.05260 | 36036 ft | 398 kts | 183° |
| 2026-05-07 19:19 | 51.44984 | 18.05041 | 36038 ft | 398 kts | 183° |
| 2026-05-07 19:20 | 51.39447 | 18.04822 | 36033 ft | 398 kts | 183° |
| 2026-05-07 19:20 | 51.34813 | 18.04640 | 36027 ft | 398 kts | 183° |
| 2026-05-07 19:21 | 51.29273 | 18.04422 | 36039 ft | 398 kts | 183° |
| 2026-05-07 19:21 | 51.23730 | 18.04205 | 36029 ft | 399 kts | 183° |
| 2026-05-07 19:22 | 51.18184 | 18.03988 | 36025 ft | 399 kts | 183° |
| 2026-05-07 19:22 | 51.12638 | 18.03772 | 36020 ft | 399 kts | 183° |
| 2026-05-07 19:23 | 51.07089 | 18.03556 | 36037 ft | 399 kts | 183° |
| 2026-05-07 19:23 | 51.01538 | 18.03340 | 36019 ft | 399 kts | 183° |
| 2026-05-07 19:24 | 50.95989 | 18.03126 | 36020 ft | 399 kts | 183° |
| 2026-05-07 19:24 | 50.90474 | 18.02913 | 36022 ft | 399 kts | 183° |
| 2026-05-07 19:25 | 50.84927 | 18.02699 | 36020 ft | 399 kts | 183° |
| 2026-05-07 19:25 | 50.79379 | 18.02487 | 36016 ft | 399 kts | 183° |
| 2026-05-07 19:26 | 50.73840 | 18.02282 | 36017 ft | 399 kts | 183° |
| 2026-05-07 19:26 | 50.68289 | 18.02073 | 36004 ft | 399 kts | 183° |
| 2026-05-07 19:27 | 50.62740 | 18.01862 | 36004 ft | 399 kts | 183° |
| 2026-05-07 19:27 | 50.57154 | 18.01648 | 36002 ft | 399 kts | 183° |
| 2026-05-07 19:28 | 50.51646 | 18.01437 | 36004 ft | 399 kts | 183° |
| 2026-05-07 19:28 | 50.46100 | 18.01226 | 36005 ft | 399 kts | 183° |
| 2026-05-07 19:29 | 50.40555 | 18.01015 | 35998 ft | 399 kts | 183° |
| 2026-05-07 19:29 | 50.35005 | 18.00804 | 35994 ft | 399 kts | 183° |
| 2026-05-07 19:30 | 50.29453 | 18.00594 | 35996 ft | 399 kts | 184° |
| 2026-05-07 19:30 | 50.23899 | 18.00385 | 35993 ft | 399 kts | 183° |
| 2026-05-07 19:31 | 50.18345 | 18.00176 | 35994 ft | 398 kts | 184° |
| 2026-05-07 19:31 | 50.12868 | 17.99971 | 35981 ft | 389 kts | 184° |
| 2026-05-07 19:32 | 50.07461 | 17.99767 | 35986 ft | 388 kts | 184° |
| 2026-05-07 19:32 | 50.04754 | 17.99663 | 35680 ft | 389 kts | 184° |
| 2026-05-07 19:32 | 50.02093 | 17.99287 | 35346 ft | 382 kts | 192° |
| 2026-05-07 19:33 | 49.99535 | 17.98344 | 35044 ft | 375 kts | 195° |
| 2026-05-07 19:33 | 49.97013 | 17.97342 | 34640 ft | 373 kts | 194° |
| 2026-05-07 19:33 | 49.94514 | 17.96352 | 34285 ft | 369 kts | 194° |
| 2026-05-07 19:33 | 49.92031 | 17.95374 | 33877 ft | 366 kts | 194° |
| 2026-05-07 19:34 | 49.89570 | 17.94413 | 33509 ft | 361 kts | 194° |
| 2026-05-07 19:34 | 49.87151 | 17.93473 | 33165 ft | 357 kts | 194° |
| 2026-05-07 19:34 | 49.84744 | 17.92541 | 32605 ft | 357 kts | 194° |
| 2026-05-07 19:34 | 49.82338 | 17.91612 | 32097 ft | 357 kts | 194° |
| 2026-05-07 19:35 | 49.79921 | 17.90681 | 31580 ft | 357 kts | 194° |
| 2026-05-07 19:35 | 49.77502 | 17.89750 | 31032 ft | 358 kts | 194° |
| 2026-05-07 19:35 | 49.75117 | 17.88834 | 30519 ft | 359 kts | 194° |
| 2026-05-07 19:35 | 49.72659 | 17.87891 | 29969 ft | 360 kts | 194° |
| 2026-05-07 19:36 | 49.70225 | 17.86958 | 29334 ft | 360 kts | 194° |
| 2026-05-07 19:36 | 49.67801 | 17.86029 | 28724 ft | 359 kts | 194° |
| 2026-05-07 19:36 | 49.65399 | 17.85110 | 28101 ft | 351 kts | 194° |
| 2026-05-07 19:36 | 49.63046 | 17.84211 | 27500 ft | 344 kts | 194° |
| 2026-05-07 19:37 | 49.60740 | 17.83331 | 26920 ft | 338 kts | 194° |
| 2026-05-07 19:37 | 49.58509 | 17.82480 | 26461 ft | 329 kts | 194° |
| 2026-05-07 19:37 | 49.56316 | 17.81644 | 26068 ft | 320 kts | 194° |
| 2026-05-07 19:37 | 49.54192 | 17.80835 | 25707 ft | 310 kts | 194° |
| 2026-05-07 19:38 | 49.52126 | 17.80050 | 25361 ft | 302 kts | 194° |
| 2026-05-07 19:38 | 49.50117 | 17.79286 | 25035 ft | 293 kts | 194° |
| 2026-05-07 19:38 | 49.48160 | 17.78543 | 24726 ft | 287 kts | 194° |
| 2026-05-07 19:38 | 49.46217 | 17.77805 | 24425 ft | 288 kts | 194° |
| 2026-05-07 19:39 | 49.44261 | 17.77063 | 24121 ft | 295 kts | 194° |
| 2026-05-07 19:39 | 49.42216 | 17.76287 | 23807 ft | 310 kts | 194° |
| 2026-05-07 19:39 | 49.40104 | 17.75487 | 23421 ft | 313 kts | 194° |
| 2026-05-07 19:39 | 49.38000 | 17.74692 | 23030 ft | 311 kts | 194° |
| 2026-05-07 19:40 | 49.35907 | 17.73901 | 22660 ft | 308 kts | 194° |
| 2026-05-07 19:40 | 49.33836 | 17.73120 | 22332 ft | 305 kts | 195° |
| 2026-05-07 19:40 | 49.31782 | 17.72345 | 21991 ft | 303 kts | 195° |
| 2026-05-07 19:40 | 49.29736 | 17.71576 | 21656 ft | 301 kts | 195° |
| 2026-05-07 19:41 | 49.27710 | 17.70813 | 21319 ft | 299 kts | 195° |
| 2026-05-07 19:41 | 49.25696 | 17.70054 | 20996 ft | 298 kts | 195° |
| 2026-05-07 19:41 | 49.23692 | 17.69301 | 20672 ft | 296 kts | 195° |
| 2026-05-07 19:41 | 49.21696 | 17.68551 | 20343 ft | 295 kts | 195° |
| 2026-05-07 19:42 | 49.19706 | 17.67804 | 20032 ft | 293 kts | 195° |
| 2026-05-07 19:42 | 49.17731 | 17.67063 | 19716 ft | 292 kts | 195° |
| 2026-05-07 19:42 | 49.15763 | 17.66326 | 19413 ft | 291 kts | 195° |
| 2026-05-07 19:42 | 49.13794 | 17.65588 | 19093 ft | 291 kts | 196° |
| 2026-05-07 19:43 | 49.11841 | 17.64858 | 18781 ft | 290 kts | 196° |
| 2026-05-07 19:43 | 49.09866 | 17.64119 | 18473 ft | 290 kts | 196° |
| 2026-05-07 19:43 | 49.07911 | 17.63389 | 18135 ft | 290 kts | 196° |
| 2026-05-07 19:43 | 49.05956 | 17.62659 | 17790 ft | 289 kts | 196° |
| 2026-05-07 19:44 | 49.04028 | 17.61939 | 17468 ft | 288 kts | 195° |
| 2026-05-07 19:44 | 49.02058 | 17.61206 | 17136 ft | 287 kts | 195° |
| 2026-05-07 19:44 | 49.00153 | 17.60497 | 16836 ft | 285 kts | 195° |
| 2026-05-07 19:44 | 48.98229 | 17.59781 | 16536 ft | 285 kts | 195° |
| 2026-05-07 19:45 | 48.96269 | 17.59052 | 16231 ft | 288 kts | 195° |
| 2026-05-07 19:45 | 48.94336 | 17.58333 | 15930 ft | 292 kts | 195° |
| 2026-05-07 19:45 | 48.92313 | 17.57581 | 15620 ft | 299 kts | 195° |
| 2026-05-07 19:45 | 48.90311 | 17.56839 | 15296 ft | 300 kts | 195° |
| 2026-05-07 19:46 | 48.88288 | 17.56089 | 14963 ft | 299 kts | 195° |
| 2026-05-07 19:46 | 48.86267 | 17.55342 | 14650 ft | 298 kts | 195° |
| 2026-05-07 19:46 | 48.84258 | 17.54599 | 14331 ft | 297 kts | 195° |
| 2026-05-07 19:46 | 48.82243 | 17.53879 | 14021 ft | 296 kts | 192° |
| 2026-05-07 19:47 | 48.80202 | 17.53635 | 13851 ft | 293 kts | 182° |
| 2026-05-07 19:47 | 48.78163 | 17.53685 | 13654 ft | 293 kts | 180° |
| 2026-05-07 19:47 | 48.76132 | 17.53781 | 13459 ft | 292 kts | 180° |
| 2026-05-07 19:47 | 48.74100 | 17.53865 | 13283 ft | 292 kts | 180° |
| 2026-05-07 19:48 | 48.72066 | 17.53927 | 13115 ft | 293 kts | 181° |
| 2026-05-07 19:48 | 48.70019 | 17.53972 | 12945 ft | 296 kts | 181° |
| 2026-05-07 19:48 | 48.67967 | 17.54008 | 12773 ft | 295 kts | 181° |
| 2026-05-07 19:48 | 48.65910 | 17.54040 | 12596 ft | 295 kts | 181° |
| 2026-05-07 19:49 | 48.63867 | 17.54070 | 12420 ft | 294 kts | 180° |
| 2026-05-07 19:49 | 48.61864 | 17.54646 | 12222 ft | 297 kts | 157° |
| 2026-05-07 19:49 | 48.60168 | 17.56401 | 12075 ft | 297 kts | 137° |
| 2026-05-07 19:49 | 48.58713 | 17.58613 | 11916 ft | 297 kts | 135° |
| 2026-05-07 19:50 | 48.57278 | 17.60833 | 11733 ft | 297 kts | 135° |
| 2026-05-07 19:50 | 48.55748 | 17.62950 | 11536 ft | 296 kts | 149° |
| 2026-05-07 19:50 | 48.53886 | 17.64183 | 11395 ft | 292 kts | 162° |
| 2026-05-07 19:50 | 48.51979 | 17.65180 | 11221 ft | 292 kts | 162° |
| 2026-05-07 19:51 | 48.50047 | 17.66171 | 11043 ft | 291 kts | 162° |
| 2026-05-07 19:51 | 48.48140 | 17.67156 | 10875 ft | 291 kts | 162° |
| 2026-05-07 19:51 | 48.46227 | 17.68152 | 10702 ft | 291 kts | 162° |
| 2026-05-07 19:51 | 48.44309 | 17.69158 | 10539 ft | 291 kts | 162° |
| 2026-05-07 19:52 | 48.42404 | 17.70161 | 10365 ft | 290 kts | 162° |
| 2026-05-07 19:52 | 48.40501 | 17.71166 | 10196 ft | 290 kts | 162° |
| 2026-05-07 19:52 | 48.38604 | 17.72168 | 10020 ft | 286 kts | 162° |
| 2026-05-07 19:52 | 48.36747 | 17.73147 | 9843 ft | 280 kts | 162° |
| 2026-05-07 19:53 | 48.34931 | 17.74105 | 9665 ft | 274 kts | 162° |
| 2026-05-07 19:53 | 48.33138 | 17.75049 | 9506 ft | 272 kts | 162° |
| 2026-05-07 19:53 | 48.31357 | 17.75986 | 9354 ft | 272 kts | 162° |
| 2026-05-07 19:53 | 48.29566 | 17.76927 | 9201 ft | 273 kts | 162° |
| 2026-05-07 19:54 | 48.27735 | 17.77599 | 9012 ft | 273 kts | 181° |
| 2026-05-07 19:54 | 48.25909 | 17.76986 | 8865 ft | 269 kts | 208° |
| 2026-05-07 19:54 | 48.24418 | 17.75334 | 8735 ft | 267 kts | 224° |
| 2026-05-07 19:54 | 48.23093 | 17.73370 | 8575 ft | 268 kts | 226° |
| 2026-05-07 19:55 | 48.21771 | 17.71383 | 8413 ft | 269 kts | 225° |
| 2026-05-07 19:55 | 48.20449 | 17.69422 | 8228 ft | 265 kts | 225° |
| 2026-05-07 19:55 | 48.19144 | 17.67507 | 8072 ft | 259 kts | 225° |
| 2026-05-07 19:55 | 48.17871 | 17.65648 | 7923 ft | 252 kts | 225° |
| 2026-05-07 19:56 | 48.16646 | 17.63862 | 7777 ft | 246 kts | 225° |
| 2026-05-07 19:56 | 48.15433 | 17.62095 | 7636 ft | 240 kts | 225° |
| 2026-05-07 19:56 | 48.14236 | 17.60355 | 7490 ft | 232 kts | 225° |
| 2026-05-07 19:56 | 48.13119 | 17.58733 | 7354 ft | 220 kts | 225° |
| 2026-05-07 19:57 | 48.12060 | 17.57196 | 7240 ft | 207 kts | 225° |
| 2026-05-07 19:57 | 48.11058 | 17.55744 | 7136 ft | 194 kts | 225° |
| 2026-05-07 19:57 | 48.10099 | 17.54352 | 7032 ft | 190 kts | 225° |
| 2026-05-07 19:57 | 48.09394 | 17.52607 | 6977 ft | 210 kts | 261° |
| 2026-05-07 19:58 | 48.09608 | 17.50437 | 6860 ft | 219 kts | 303° |
| 2026-05-07 19:58 | 48.10651 | 17.48792 | 6776 ft | 220 kts | 316° |
| 2026-05-07 19:58 | 48.11774 | 17.47175 | 6615 ft | 222 kts | 315° |
| 2026-05-07 19:58 | 48.12858 | 17.45552 | 6474 ft | 219 kts | 314° |
| 2026-05-07 19:59 | 48.13890 | 17.43983 | 6319 ft | 208 kts | 314° |
| 2026-05-07 19:59 | 48.14886 | 17.42458 | 6183 ft | 197 kts | 314° |
| 2026-05-07 19:59 | 48.15813 | 17.41037 | 6105 ft | 190 kts | 315° |
| 2026-05-07 19:59 | 48.16975 | 17.40115 | 5958 ft | 192 kts | 354° |
| 2026-05-07 20:00 | 48.18263 | 17.40518 | 5913 ft | 198 kts | 33° |
| 2026-05-07 20:00 | 48.19315 | 17.41928 | 5828 ft | 202 kts | 43° |
| 2026-05-07 20:00 | 48.20325 | 17.43382 | 5669 ft | 204 kts | 42° |
| 2026-05-07 20:00 | 48.21345 | 17.44854 | 5541 ft | 202 kts | 43° |
| 2026-05-07 20:01 | 48.22349 | 17.46309 | 5414 ft | 198 kts | 43° |
| 2026-05-07 20:01 | 48.23331 | 17.47735 | 5292 ft | 195 kts | 42° |
| 2026-05-07 20:01 | 48.24305 | 17.49148 | 5197 ft | 195 kts | 43° |
| 2026-05-07 20:01 | 48.25282 | 17.50559 | 5080 ft | 196 kts | 39° |
| 2026-05-07 20:02 | 48.26485 | 17.51348 | 4802 ft | 191 kts | 355° |
| 2026-05-07 20:02 | 48.27680 | 17.50585 | 4351 ft | 194 kts | 313° |
| 2026-05-07 20:02 | 48.28361 | 17.48786 | 3834 ft | 204 kts | 282° |
| 2026-05-07 20:02 | 48.28273 | 17.46675 | 3450 ft | 205 kts | 253° |
| 2026-05-07 20:03 | 48.27842 | 17.44658 | 3234 ft | 202 kts | 253° |
| 2026-05-07 20:03 | 48.27427 | 17.42658 | 3090 ft | 199 kts | 253° |
| 2026-05-07 20:03 | 48.27019 | 17.40687 | 2939 ft | 195 kts | 253° |
| 2026-05-07 20:03 | 48.26625 | 17.38780 | 2828 ft | 192 kts | 253° |
| 2026-05-07 20:04 | 48.26230 | 17.36872 | 2691 ft | 191 kts | 253° |
| 2026-05-07 20:04 | 48.25839 | 17.34995 | 2544 ft | 186 kts | 251° |
| 2026-05-07 20:04 | 48.25193 | 17.33372 | 2437 ft | 182 kts | 232° |
| 2026-05-07 20:04 | 48.24349 | 17.31901 | 2199 ft | 185 kts | 228° |
| 2026-05-07 20:05 | 48.23457 | 17.30568 | 1950 ft | 176 kts | 225° |
| 2026-05-07 20:05 | 48.22597 | 17.29335 | 1721 ft | 166 kts | 225° |
| 2026-05-07 20:05 | 48.21790 | 17.28172 | 1549 ft | 157 kts | 225° |
| 2026-05-07 20:05 | 48.21285 | 17.27444 | 1393 ft | 149 kts | 225° |
| 2026-05-07 20:06 | 48.20556 | 17.26393 | 1185 ft | 143 kts | 225° |
| 2026-05-07 20:06 | 48.19826 | 17.25334 | 1037 ft | 149 kts | 225° |
| 2026-05-07 20:06 | 48.19077 | 17.24254 | 821 ft | 150 kts | 225° |
| 2026-05-07 20:06 | 48.18330 | 17.23181 | 584 ft | 147 kts | 226° |
| 2026-05-07 20:07 | 48.17603 | 17.22139 | 437 ft | 138 kts | 225° |
| 2026-05-07 20:07 | 48.17001 | 17.21271 | 422 ft | 99 kts | 224° |
| 2026-05-07 20:07 | 48.16678 | 17.20807 | 425 ft | 43 kts | 224° |
| 2026-05-07 20:07 | 48.16569 | 17.20590 | 425 ft | 17 kts | 291° |
| 2026-05-07 20:08 | 48.16637 | 17.20475 | 418 ft | 11 kts | 314° |
| 2026-05-07 20:08 | 48.16666 | 17.20431 | 430 ft | 0 kts | 312° |
| 2026-05-07 20:09 | 48.16680 | 17.20408 | 432 ft | 6 kts | 312° |
| 2026-05-07 20:09 | 48.16719 | 17.20346 | 428 ft | 10 kts | 315° |
| 2026-05-07 20:09 | 48.16777 | 17.20257 | 431 ft | 13 kts | 316° |
| 2026-05-07 20:10 | 48.16867 | 17.20149 | 421 ft | 5 kts | 14° |
| 2026-05-07 20:10 | 48.16894 | 17.20179 | 426 ft | 6 kts | 43° |
| 2026-05-07 20:10 | 48.16925 | 17.20223 | 431 ft | 6 kts | 43° |
| 2026-05-07 20:10 | 48.16956 | 17.20265 | 420 ft | 6 kts | 35° |
| 2026-05-07 20:11 | 48.16978 | 17.20255 | 431 ft | 3 kts | 312° |
| 2026-05-07 20:11 | 48.16991 | 17.20234 | 425 ft | 3 kts | 313° |
| 2026-05-07 20:11 | 48.17002 | 17.20217 | 424 ft | 0 kts | 313° |